Terminal Aerodrome Forecast
Issued by NWS Duluth, MN

Home | Current Version | Previous Version | Text Only | Print | Product List | Glossary On
Versions: 1 2 3 4 5 6 7 8 9 10 11 12 13 14 15 16 17
000
FTUS43 KDLH 281735
TAFINL
TAF
KINL 281735Z 2818/2918 32006KT P6SM SCT020 BKN090
     FM281900 32007KT P6SM VCSH SCT025 BKN050
      TEMPO 2820/2823 -TSRA BKN040CB
     FM290000 VRB04KT P6SM BKN080
     FM291300 29006KT P6SM VCSH SCT040 BKN070=

USA.gov is the U.S. government's official web portal to all federal, state and local government web resources and services.